createdAt,value
2022-12-06T00:05:38.670Z,1004.14
2022-12-06T00:11:29.416Z,1004.1
2022-12-06T00:17:12.287Z,1004.06
2022-12-06T00:22:55.322Z,1004.08
2022-12-06T00:28:38.723Z,1004.01
2022-12-06T00:34:21.554Z,1004.06
2022-12-06T00:40:05.087Z,1004
2022-12-06T00:45:48.343Z,1003.99
2022-12-06T00:51:32.321Z,1003.97
2022-12-06T00:57:15.367Z,1003.99
2022-12-06T01:02:58.826Z,1003.95
2022-12-06T01:08:42.614Z,1003.99
2022-12-06T01:14:26.671Z,1004.01
2022-12-06T01:20:10.679Z,1003.97
2022-12-06T01:25:54.165Z,1003.88
2022-12-06T01:31:40.334Z,1003.93
2022-12-06T01:37:23.346Z,1003.94
2022-12-06T01:43:06.407Z,1003.9
2022-12-06T01:48:51.860Z,1004
2022-12-06T01:54:35.365Z,1003.94
2022-12-06T02:00:19.194Z,1003.89
2022-12-06T02:06:02.734Z,1003.96
2022-12-06T02:11:45.770Z,1003.95
2022-12-06T02:17:38.339Z,1003.9
2022-12-06T02:23:33.714Z,1003.88
2022-12-06T02:29:33.888Z,1003.86
2022-12-06T02:35:21.352Z,1003.83
2022-12-06T02:41:09.134Z,1003.79
2022-12-06T02:46:53.751Z,1003.84
2022-12-06T02:52:38.588Z,1003.81
2022-12-06T02:58:21.766Z,1003.73
2022-12-06T03:04:12.132Z,1003.69
2022-12-06T03:10:04.632Z,1003.75
2022-12-06T03:15:54.366Z,1003.7
2022-12-06T03:21:41.926Z,1003.73
2022-12-06T03:27:25.969Z,1003.72
2022-12-06T03:33:10.286Z,1003.8
2022-12-06T03:38:54.986Z,1003.81
2022-12-06T03:44:38.416Z,1003.86
2022-12-06T03:50:23.577Z,1003.81
2022-12-06T03:56:07.097Z,1003.81
2022-12-06T04:01:50.182Z,1003.83
2022-12-06T04:07:33.516Z,1003.84
2022-12-06T04:13:20.751Z,1003.91
2022-12-06T04:19:03.984Z,1003.88
2022-12-06T04:24:46.805Z,1003.87
2022-12-06T04:30:30.083Z,1003.89
2022-12-06T04:36:14.245Z,1003.85
2022-12-06T04:41:57.636Z,1003.81
2022-12-06T04:47:40.455Z,1003.76
2022-12-06T04:53:23.463Z,1003.64
2022-12-06T04:59:06.666Z,1003.62
2022-12-06T05:04:49.788Z,1003.6
2022-12-06T05:10:32.720Z,1003.61
2022-12-06T05:16:15.918Z,1003.58
2022-12-06T05:21:58.901Z,1003.6
2022-12-06T05:27:41.927Z,1003.58
2022-12-06T05:33:25.641Z,1003.54
2022-12-06T05:39:08.600Z,1003.46
2022-12-06T05:44:51.517Z,1003.49
2022-12-06T05:50:34.616Z,1003.51
2022-12-06T05:56:17.521Z,1003.51
2022-12-06T06:02:01.931Z,1003.55
2022-12-06T06:07:45.227Z,1003.51
2022-12-06T06:13:28.377Z,1003.56
2022-12-06T06:19:11.331Z,1003.52
2022-12-06T06:24:55.222Z,1003.58
2022-12-06T06:30:38.218Z,1003.58
2022-12-06T06:36:21.271Z,1003.61
2022-12-06T06:42:04.385Z,1003.55
2022-12-06T06:47:47.582Z,1003.6
2022-12-06T06:53:30.516Z,1003.61
2022-12-06T06:59:13.515Z,1003.65
2022-12-06T07:04:57.572Z,1003.66
2022-12-06T07:10:40.490Z,1003.73
2022-12-06T07:16:23.851Z,1003.68
2022-12-06T07:22:06.943Z,1003.68
2022-12-06T07:27:49.963Z,1003.73
2022-12-06T07:33:32.999Z,1003.66
2022-12-06T07:39:16.228Z,1003.66
2022-12-06T07:45:03.602Z,1003.79
2022-12-06T07:50:46.722Z,1003.84
2022-12-06T07:56:29.772Z,1003.82
2022-12-06T08:02:17.642Z,1003.86
2022-12-06T08:08:00.754Z,1003.87
2022-12-06T08:13:44.036Z,1003.91
2022-12-06T08:19:27.326Z,1003.95
2022-12-06T08:25:10.676Z,1003.94
2022-12-06T08:31:03.016Z,1004
2022-12-06T08:36:46.545Z,1004.01
2022-12-06T08:42:31.461Z,1004.07
2022-12-06T08:48:14.396Z,1004.14
2022-12-06T08:53:57.876Z,1004.13
2022-12-06T08:59:40.497Z,1004.21
2022-12-06T09:05:23.622Z,1004.3
2022-12-06T09:11:07.596Z,1004.34
2022-12-06T09:16:51.325Z,1004.44
2022-12-06T09:22:35.353Z,1004.48
2022-12-06T09:28:18.156Z,1004.59
2022-12-06T09:34:01.160Z,1004.68
2022-12-06T09:39:45.249Z,1004.69
2022-12-06T09:45:32.775Z,1004.68
2022-12-06T09:51:19.942Z,1004.7
2022-12-06T09:57:08.205Z,1004.71
2022-12-06T10:02:59.808Z,1004.76
2022-12-06T10:08:57.052Z,1004.7
2022-12-06T10:14:50.329Z,1004.78
2022-12-06T10:20:39.119Z,1004.71
2022-12-06T10:26:26.396Z,1004.69
2022-12-06T10:32:15.392Z,1004.69
2022-12-06T10:38:06.936Z,1004.65
2022-12-06T10:43:54.854Z,1004.54
2022-12-06T10:49:44.794Z,1004.44
2022-12-06T10:55:32.213Z,1004.4
2022-12-06T11:01:18.638Z,1004.38
2022-12-06T11:07:03.533Z,1004.36
2022-12-06T11:12:46.902Z,1004.32
2022-12-06T11:18:30.611Z,1004.29
2022-12-06T11:24:17.365Z,1004.23
2022-12-06T11:30:02.672Z,1004.24
2022-12-06T11:35:46.822Z,1004.32
2022-12-06T11:41:33.963Z,1004.34
2022-12-06T11:47:20.196Z,1004.33
2022-12-06T11:53:06.084Z,1004.3
2022-12-06T11:58:53.429Z,1004.28
2022-12-06T12:04:41.173Z,1004.33
2022-12-06T12:10:31.218Z,1004.27
2022-12-06T12:16:19.828Z,1004.25
2022-12-06T12:22:08.218Z,1004.21
2022-12-06T12:27:52.503Z,1004.13
2022-12-06T12:33:35.674Z,1004.04
2022-12-06T12:39:28.933Z,1004.05
2022-12-06T12:45:17.989Z,1003.96
2022-12-06T12:51:02.758Z,1003.87
2022-12-06T12:56:45.950Z,1003.85
2022-12-06T13:02:31.264Z,1003.73
2022-12-06T13:08:17.228Z,1003.77
2022-12-06T13:14:01.164Z,1003.83
2022-12-06T13:19:53.518Z,1003.92
2022-12-06T13:25:40.927Z,1003.9
2022-12-06T13:31:25.773Z,1003.87
2022-12-06T13:37:17.580Z,1003.78
2022-12-06T13:43:01.237Z,1003.71
2022-12-06T13:48:48.709Z,1003.69
2022-12-06T13:54:36.336Z,1003.63
2022-12-06T14:00:30.189Z,1003.55
2022-12-06T14:06:16.793Z,1003.54
2022-12-06T14:12:00.121Z,1003.56
2022-12-06T14:18:09.613Z,1003.57
2022-12-06T14:23:49.366Z,1003.58
2022-12-06T14:29:33.446Z,1003.54
2022-12-06T14:35:18.081Z,1003.5
2022-12-06T14:41:01.194Z,1003.52
2022-12-06T14:46:45.120Z,1003.48
2022-12-06T14:52:29.788Z,1003.49
2022-12-06T14:58:21.203Z,1003.5
2022-12-06T15:04:06.062Z,1003.47
2022-12-06T15:09:49.544Z,1003.49
2022-12-06T15:15:37.278Z,1003.51
2022-12-06T15:21:20.481Z,1003.55
2022-12-06T15:27:03.723Z,1003.5
2022-12-06T15:32:46.839Z,1003.42
2022-12-06T15:38:30.265Z,1003.44
2022-12-06T15:44:15.429Z,1003.44
2022-12-06T15:49:58.584Z,1003.42
2022-12-06T15:55:41.617Z,1003.45
2022-12-06T16:01:27.327Z,1003.46
2022-12-06T16:07:12.579Z,1003.47
2022-12-06T16:12:56.049Z,1003.45
2022-12-06T16:18:39.086Z,1003.44
2022-12-06T16:24:22.325Z,1003.51
2022-12-06T16:30:07.250Z,1003.57
2022-12-06T16:35:52.906Z,1003.61
2022-12-06T16:41:36.901Z,1003.62
2022-12-06T16:53:00.786Z,1003.62
2022-12-06T16:58:43.716Z,1003.56
2022-12-06T17:04:26.412Z,1003.53
2022-12-06T17:10:10.559Z,1003.5
2022-12-06T17:15:54.440Z,1003.43
2022-12-06T17:21:37.817Z,1003.49
2022-12-06T17:27:20.804Z,1003.41
2022-12-06T17:33:03.971Z,1003.38
2022-12-06T17:38:47.090Z,1003.41
2022-12-06T17:44:30.294Z,1003.46
2022-12-06T17:50:13.677Z,1003.46
2022-12-06T17:55:56.851Z,1003.47
2022-12-06T18:02:13.967Z,1003.5
2022-12-06T18:07:42.876Z,1003.55
2022-12-06T18:13:29.940Z,1003.64
2022-12-06T18:19:13.869Z,1003.74
2022-12-06T18:24:56.791Z,1003.79
2022-12-06T18:30:40.238Z,1003.7
2022-12-06T18:36:23.292Z,1003.75
2022-12-06T18:42:06.420Z,1003.73
2022-12-06T18:47:49.215Z,1003.63
2022-12-06T18:53:33.596Z,1003.59
2022-12-06T18:59:16.857Z,1003.52
2022-12-06T19:05:06.952Z,1003.59
2022-12-06T19:10:51.237Z,1003.52
2022-12-06T19:16:35.167Z,1003.51
2022-12-06T19:22:18.652Z,1003.52
2022-12-06T19:28:03.789Z,1003.54
2022-12-06T19:33:48.465Z,1003.52
2022-12-06T19:39:31.754Z,1003.49
2022-12-06T19:45:15.376Z,1003.48
2022-12-06T19:50:58.643Z,1003.46
2022-12-06T19:56:42.361Z,1003.49
2022-12-06T20:02:26.553Z,1003.49
2022-12-06T20:08:11.021Z,1003.54
2022-12-06T20:13:54.538Z,1003.51
2022-12-06T20:19:37.612Z,1003.49
2022-12-06T20:25:21.037Z,1003.44
2022-12-06T20:31:09.335Z,1003.41
2022-12-06T20:36:52.931Z,1003.42
2022-12-06T20:42:36.273Z,1003.39
2022-12-06T20:48:19.569Z,1003.33
2022-12-06T20:54:03.365Z,1003.32
2022-12-06T20:59:46.998Z,1003.36
2022-12-06T21:05:32.670Z,1003.33
2022-12-06T21:11:22.905Z,1003.33
2022-12-06T21:17:08.220Z,1003.28
2022-12-06T21:22:51.569Z,1003.34
2022-12-06T21:28:34.458Z,1003.38
2022-12-06T21:34:17.413Z,1003.36
2022-12-06T21:40:01.844Z,1003.34
2022-12-06T21:45:46.571Z,1003.34
2022-12-06T21:51:30.820Z,1003.37
2022-12-06T21:57:14.307Z,1003.33
2022-12-06T22:02:59.072Z,1003.32
2022-12-06T22:08:43.545Z,1003.39
2022-12-06T22:14:26.588Z,1003.42
2022-12-06T22:20:11.867Z,1003.4
2022-12-06T22:25:55.563Z,1003.48
2022-12-06T22:31:40.312Z,1003.49
2022-12-06T22:37:29.367Z,1003.52
2022-12-06T22:43:12.448Z,1003.52
2022-12-06T22:48:55.919Z,1003.49
2022-12-06T22:54:38.964Z,1003.4
2022-12-06T23:00:22.050Z,1003.38
2022-12-06T23:06:05.550Z,1003.34
2022-12-06T23:11:48.680Z,1003.31
2022-12-06T23:17:33.428Z,1003.37
2022-12-06T23:23:16.803Z,1003.31
2022-12-06T23:29:00.015Z,1003.42
2022-12-06T23:34:43.049Z,1003.4
2022-12-06T23:40:26.187Z,1003.4
2022-12-06T23:46:10.795Z,1003.37
2022-12-06T23:51:54.515Z,1003.25
2022-12-06T23:57:37.737Z,1003.2
